VIDP

Indira Gandhi International Airport

New Delhi, India
TAF VIDP 211700Z 2118/2224 23004KT 2500 HZ FEW040 SCT100 BECMG 2200/2202 27005KT 2000 HZ FEW040 BECMG 2205/2207 30008KT 4000 HZ SCT040 TEMPO 2209/2214 29020G30KT 0800 DS TSRA SCT035 FEW040CB BKN090 BECMG 2215/2217 26005KT 3000 HZ
Issued Valid From Valid To
Jun-21 @ 17:00 UTC
(an hour ago)
Jun-21 @ 18:00 UTC
(4 minutes ago)
Jun-23 @ 00:00 UTC
(-1 days ago)
Jun-21 @ 18:00 to Jun-22 @ 00:00
TAF VIDP 211700Z 2118/2224 23004KT 2500 HZ FEW040 SCT100
Wind Visibility Clouds Conditions
230° at 4 knots 2,494 meters
  • Few at 4,000' AGL
  • Scattered at 10,000' AGL
  • Haze
Becoming Jun-22 @ 00:00 to Jun-22 @ 05:00
BECMG 2200/2202 27005KT 2000 HZ FEW040
Wind Visibility Clouds Conditions
270° at 5 knots 1,996 meters
  • Few at 4,000' AGL
  • Haze
Becoming Jun-22 @ 05:00 to Jun-22 @ 15:00
BECMG 2205/2207 30008KT 4000 HZ SCT040
Wind Visibility Clouds Conditions
300° at 8 knots 4,007 meters
  • Scattered at 4,000' AGL
  • Haze
Temporary Jun-22 @ 09:00 to Jun-22 @ 14:00
TEMPO 2209/2214 29020G30KT 0800 DS TSRA SCT035 FEW040CB BKN090
Wind Visibility Clouds Conditions
290° at 20 knots
 Gusting to 30 knots
805 meters
  • Scattered at 3,500' AGL
  • Few at 4,000' AGL
  • Broken at 9,000' AGL
  • Duststorm
  • Thunderstorm
  • Rain
Becoming Jun-22 @ 15:00 to Jun-23 @ 00:00
BECMG 2215/2217 26005KT 3000 HZ
Wind Visibility Clouds Conditions
260° at 5 knots 2,993 meters
  • Scattered at 4,000' AGL
  • Haze
TAF VIDP 211700Z 2118/2224 23004KT 2500 HZ FEW040 SCT100 BECMG 2200/2202 27005KT 2000 HZ FEW040 BECMG 2205/2207 30008KT 4000 HZ SCT040 TEMPO 2209/2214 29020G30KT 0800 DS TSRA SCT035 FEW040CB BKN090 BECMG 2215/2217 26005KT 3000 HZ
Issued Jun-21 @ 17:00 UTC
(an hour ago)
Valid From Jun-21 @ 18:00 UTC
(4 minutes ago)
Valid To Jun-23 @ 00:00 UTC
(-1 days ago)
Jun-21 @ 18:00 - Jun-22 @ 00:00
Wind Visibility
230° at 4 knots 2,494 meters
Clouds
  • Few at 4,000' AGL
  • Scattered at 10,000' AGL
Conditions
  • Haze
Becoming Jun-22 @ 00:00 - Jun-22 @ 05:00
Wind Visibility
270° at 5 knots 1,996 meters
Clouds
  • Few at 4,000' AGL
Conditions
  • Haze
Becoming Jun-22 @ 05:00 - Jun-22 @ 15:00
Wind Visibility
300° at 8 knots 4,007 meters
Clouds
  • Scattered at 4,000' AGL
Conditions
  • Haze
Temporary Jun-22 @ 09:00 - Jun-22 @ 14:00
Wind Visibility
290° at 20 knots
 Gusting to 30 knots
805 meters
Clouds
  • Scattered at 3,500' AGL
  • Few at 4,000' AGL
  • Broken at 9,000' AGL
Conditions
  • Duststorm
  • Thunderstorm
  • Rain
Becoming Jun-22 @ 15:00 - Jun-23 @ 00:00
Wind Visibility
260° at 5 knots 2,993 meters
Clouds
  • Scattered at 4,000' AGL
Conditions
  • Haze